Time;durP1;ratioP1;P1;durP2;ratioP2;P2;SDS_P1;SDS_P2;PMS_P1;PMS_P2;Temp;Humidity;BMP_temperature;BMP_pressure;BME280_temperature;BME280_humidity;BME280_pressure;Samples;Min_cycle;Max_cycle;Signal;HPM_P1;HPM_P2
2022/07/01 00:00:37;;;;;;;20.17;18.27;;;;;;;22.79;70.04;100526.03;7394319;19;20028;-69
2022/07/01 00:03:05;;;;;;;23.52;21.25;;;;;;;22.76;70.35;100523.56;7393746;19;20015;-69
2022/07/01 00:05:34;;;;;;;21.75;19.65;;;;;;;22.72;70.34;100520.31;7392702;19;20018;-69
2022/07/01 00:08:02;;;;;;;22.90;20.35;;;;;;;22.71;70.25;100512.38;7392803;19;20037;-69
2022/07/01 00:10:31;;;;;;;22.70;20.50;;;;;;;22.69;70.60;100520.53;7394825;19;20027;-70
2022/07/01 00:13:00;;;;;;;24.52;22.02;;;;;;;22.66;70.31;100512.75;7392557;19;20027;-69
2022/07/01 00:15:28;;;;;;;23.90;21.80;;;;;;;22.64;70.54;100512.00;7394059;19;20031;-69
2022/07/01 00:17:59;;;;;;;24.17;21.73;;;;;;;22.62;70.88;100511.25;7392538;19;20018;-69
2022/07/01 00:20:28;;;;;;;23.50;21.23;;;;;;;22.60;70.58;100510.53;7394736;19;20036;-69
2022/07/01 00:22:56;;;;;;;23.50;21.13;;;;;;;22.57;70.96;100508.97;7392373;19;20043;-69
2022/07/01 00:25:25;;;;;;;25.52;22.02;;;;;;;22.56;71.06;100507.25;7393796;19;20017;-69
2022/07/01 00:27:53;;;;;;;22.83;20.70;;;;;;;22.53;70.77;100498.59;7391549;19;20481;-69
2022/07/01 00:30:22;;;;;;;25.27;22.67;;;;;;;22.50;70.84;100512.22;7392011;19;20015;-70
2022/07/01 00:32:52;;;;;;;24.17;21.95;;;;;;;22.47;71.28;100512.44;7392065;19;20014;-70
2022/07/01 00:35:23;;;;;;;24.23;21.83;;;;;;;22.46;71.41;100508.91;7394268;19;20014;-70
2022/07/01 00:37:52;;;;;;;24.30;22.00;;;;;;;22.43;71.31;100503.78;7392867;19;20026;-70
2022/07/01 00:40:27;;;;;;;26.25;23.67;;;;;;;22.42;71.48;100507.44;7401223;19;20014;-70
2022/07/01 00:42:56;;;;;;;27.45;24.75;;;;;;;22.39;71.25;100505.88;7400107;19;20100;-70
2022/07/01 00:45:25;;;;;;;26.20;23.65;;;;;;;22.37;71.55;100507.78;7401096;19;20026;-70
2022/07/01 00:47:53;;;;;;;26.15;23.55;;;;;;;22.36;71.46;100508.72;7397661;19;20477;-70
2022/07/01 00:50:25;;;;;;;26.95;24.17;;;;;;;22.34;71.49;100505.31;7398300;19;20018;-70
2022/07/01 00:52:54;;;;;;;26.75;24.15;;;;;;;22.33;71.59;100508.09;7400528;19;20502;-70
2022/07/01 00:55:22;;;;;;;25.50;23.08;;;;;;;22.29;72.07;100511.00;7400712;19;20089;-70
2022/07/01 00:57:51;;;;;;;24.30;21.70;;;;;;;22.26;72.15;100508.56;7398836;19;20031;-70
2022/07/01 01:00:23;;;;;;;26.23;23.63;;;;;;;22.23;71.86;100514.13;7398348;19;20506;-69
2022/07/01 01:02:52;;;;;;;25.58;23.13;;;;;;;22.20;72.44;100516.19;7399616;19;20035;-70
2022/07/01 01:05:21;;;;;;;26.23;23.48;;;;;;;22.17;72.10;100516.44;7400386;19;20085;-69
2022/07/01 01:07:52;;;;;;;26.15;23.52;;;;;;;22.13;72.78;100510.44;7398249;19;20014;-70
2022/07/01 01:10:23;;;;;;;26.02;23.15;;;;;;;22.09;72.43;100495.59;7397982;19;20047;-70
2022/07/01 01:12:52;;;;;;;26.77;24.10;;;;;;;22.05;73.05;100491.47;7401321;19;20014;-69
2022/07/01 01:15:21;;;;;;;26.10;23.50;;;;;;;22.01;72.67;100487.31;7397586;19;20031;-70
2022/07/01 01:17:50;;;;;;;26.27;23.77;;;;;;;21.98;73.08;100485.72;7397839;19;20019;-69
2022/07/01 01:20:21;;;;;;;26.27;23.67;;;;;;;21.95;72.96;100485.94;7397443;19;20015;-69
2022/07/01 01:22:52;;;;;;;25.60;23.10;;;;;;;21.91;73.39;100482.66;7397808;19;20029;-69
2022/07/01 01:25:21;;;;;;;25.70;23.20;;;;;;;21.87;73.32;100475.81;7397857;19;20015;-70
2022/07/01 01:27:49;;;;;;;25.42;22.83;;;;;;;21.85;73.49;100485.78;7396855;19;20388;-70
2022/07/01 01:30:18;;;;;;;27.45;24.75;;;;;;;21.81;73.73;100481.63;7399574;19;20025;-70
2022/07/01 01:32:46;;;;;;;26.00;23.35;;;;;;;21.80;73.64;100479.94;7397295;19;20039;-70
2022/07/01 01:35:15;;;;;;;26.52;23.90;;;;;;;21.76;74.11;100475.75;7399456;19;20018;-70
2022/07/01 01:37:44;;;;;;;27.73;25.05;;;;;;;21.73;74.12;100476.84;7397805;19;20018;-70
2022/07/01 01:40:16;;;;;;;26.75;24.00;;;;;;;21.71;73.94;100462.78;7398940;19;20015;-70
2022/07/01 01:42:45;;;;;;;26.80;24.10;;;;;;;21.67;74.03;100468.44;7398118;19;20489;-70
2022/07/01 01:45:14;;;;;;;26.77;24.00;;;;;;;21.65;74.03;100463.22;7396486;19;20014;-70
2022/07/01 01:47:43;;;;;;;27.50;24.80;;;;;;;21.62;74.41;100464.28;7396170;19;20066;-70
2022/07/01 01:50:15;;;;;;;28.48;25.48;;;;;;;21.58;74.70;100446.75;7394510;19;20043;-70
2022/07/01 01:52:44;;;;;;;26.33;23.73;;;;;;;21.57;74.88;100455.75;7398492;19;20387;-70
2022/07/01 01:55:15;;;;;;;27.45;24.65;;;;;;;21.55;74.96;100448.81;7398755;19;20093;-70
2022/07/01 01:57:44;;;;;;;26.70;23.95;;;;;;;21.52;74.55;100441.88;7397454;19;20022;-69
2022/07/01 02:00:14;;;;;;;26.52;23.92;;;;;;;21.51;74.69;100444.63;7398570;19;20031;-69
2022/07/01 02:02:43;;;;;;;26.52;23.88;;;;;;;21.47;74.80;100444.00;7397925;19;20111;-69
2022/07/01 02:05:14;;;;;;;26.70;24.13;;;;;;;21.46;74.91;100455.66;7397912;19;20015;-69
2022/07/01 02:07:42;;;;;;;27.15;24.33;;;;;;;21.45;75.34;100456.63;7397224;19;20022;-69
2022/07/01 02:10:11;;;;;;;28.33;25.50;;;;;;;21.43;75.58;100455.88;7398231;19;20022;-69
2022/07/01 02:12:42;;;;;;;25.77;23.17;;;;;;;21.39;75.69;100462.41;7397815;19;20014;-69
2022/07/01 02:15:12;;;;;;;27.42;24.58;;;;;;;21.37;75.16;100458.97;7398515;19;20031;-69
2022/07/01 02:17:40;;;;;;;29.45;26.55;;;;;;;21.34;75.83;100461.88;7398004;19;20022;-69
2022/07/01 02:20:14;;;;;;;30.95;27.75;;;;;;;21.31;75.36;100462.94;7397377;19;20018;-70
2022/07/01 02:22:43;;;;;;;28.33;25.33;;;;;;;21.28;75.58;100458.69;7396609;19;20090;-70
2022/07/01 02:25:12;;;;;;;26.90;24.27;;;;;;;21.26;75.88;100457.94;7397740;19;20022;-69
2022/07/01 02:27:43;;;;;;;28.02;25.13;;;;;;;21.23;76.17;100462.63;7396339;19;20022;-69
2022/07/01 02:30:12;;;;;;;26.75;24.15;;;;;;;21.19;76.30;100464.66;7397743;19;20035;-70
2022/07/01 02:32:41;;;;;;;27.88;25.08;;;;;;;21.16;76.59;100473.72;7397267;19;20035;-69
2022/07/01 02:35:10;;;;;;;27.10;24.42;;;;;;;21.15;76.60;100471.19;7394614;19;20503;-69
2022/07/01 02:37:39;;;;;;;29.55;26.65;;;;;;;21.13;76.54;100476.63;7395200;19;20036;-69
2022/07/01 02:40:09;;;;;;;28.25;25.50;;;;;;;21.11;76.66;100470.53;7397023;19;20021;-70
2022/07/01 02:42:37;;;;;;;28.30;25.55;;;;;;;21.12;76.62;100479.41;7394761;19;20078;-70
2022/07/01 02:45:10;;;;;;;27.30;24.63;;;;;;;21.10;76.63;100478.66;7397090;19;20025;-70
2022/07/01 02:47:40;;;;;;;27.98;25.27;;;;;;;21.08;76.88;100493.91;7395336;19;20013;-71
2022/07/01 02:50:11;;;;;;;31.40;28.30;;;;;;;21.06;77.00;100493.16;7396799;19;20108;-69
2022/07/01 02:52:41;;;;;;;29.92;26.75;;;;;;;21.05;76.81;100499.47;7396988;19;20031;-69
2022/07/01 02:55:11;;;;;;;27.98;25.30;;;;;;;21.05;77.32;100496.78;7396609;19;20015;-69
2022/07/01 02:57:40;;;;;;;30.77;27.73;;;;;;;21.03;77.19;100509.38;7395512;19;20047;-69
2022/07/01 03:00:14;;;;;;;29.83;26.80;;;;;;;21.01;77.47;100500.63;7396502;19;20027;-69
2022/07/01 03:02:43;;;;;;;30.58;27.50;;;;;;;20.98;77.38;100497.22;7395303;19;20025;-69
2022/07/01 03:05:13;;;;;;;31.20;28.08;;;;;;;20.97;77.21;100500.00;7396282;19;20027;-69
2022/07/01 03:07:42;;;;;;;31.95;28.88;;;;;;;20.94;77.53;100497.53;7395151;19;20014;-69
2022/07/01 03:10:12;;;;;;;32.40;29.02;;;;;;;20.93;77.76;100495.84;7394403;19;20416;-69
2022/07/01 03:12:41;;;;;;;31.05;27.88;;;;;;;20.91;77.87;100501.25;7394956;19;20036;-69
2022/07/01 03:15:14;;;;;;;30.20;27.20;;;;;;;20.90;77.54;100494.25;7396053;19;20025;-69
2022/07/01 03:17:45;;;;;;;31.95;28.85;;;;;;;20.90;77.77;100491.59;7394674;19;20476;-69
2022/07/01 03:20:15;;;;;;;32.15;28.95;;;;;;;20.91;78.17;100495.09;7396248;19;20014;-69
2022/07/01 03:22:45;;;;;;;32.38;29.05;;;;;;;20.90;78.24;100488.91;7394580;19;20027;-69
2022/07/01 03:25:14;;;;;;;32.35;29.05;;;;;;;20.91;78.09;100495.94;7395526;19;20032;-69
2022/07/01 03:27:45;;;;;;;33.25;29.85;;;;;;;20.91;78.29;100490.59;7394174;19;20014;-69
2022/07/01 03:30:17;;;;;;;32.22;29.13;;;;;;;20.93;78.02;100495.84;7393535;19;20362;-69
2022/07/01 03:32:46;;;;;;;32.63;29.35;;;;;;;20.94;78.28;100498.41;7394851;19;20014;-69
2022/07/01 03:37:57;;;;;;;31.40;28.00;;;;;;;20.98;77.86;100485.72;7393676;19;20495;-69
2022/07/01 03:40:25;;;;;;;32.65;29.25;;;;;;;20.99;77.96;100487.38;7392936;19;20027;-69
2022/07/01 03:42:54;;;;;;;31.80;28.58;;;;;;;21.00;77.90;100486.44;7394475;19;20082;-69
2022/07/01 03:45:25;;;;;;;30.35;27.50;;;;;;;21.01;78.35;100482.81;7392763;19;20426;-69
2022/07/01 03:47:53;;;;;;;31.27;28.20;;;;;;;21.02;78.39;100478.34;7392391;19;20485;-70
2022/07/01 03:50:24;;;;;;;32.35;29.15;;;;;;;21.02;78.08;100481.88;7392829;19;20024;-69
2022/07/01 03:54:29;;;;;;;32.17;28.80;;;;;;;21.03;78.32;100488.03;7394954;19;20393;-69
2022/07/01 03:55:41;;;;;;;30.95;27.80;;;;;;;21.04;78.51;100485.28;7394265;19;20021;-69
2022/07/01 03:58:09;;;;;;;32.78;29.42;;;;;;;21.06;78.24;100491.34;7392267;19;20014;-69
2022/07/01 04:00:41;;;;;;;31.00;27.90;;;;;;;21.11;78.11;100488.38;7393684;19;20031;-69
2022/07/01 04:03:10;;;;;;;30.50;27.48;;;;;;;21.12;78.08;100484.75;7392792;19;20018;-69
2022/07/01 04:05:40;;;;;;;31.92;27.70;;;;;;;21.14;78.20;100478.34;7393786;19;20067;-69
2022/07/01 04:08:11;;;;;;;30.20;27.17;;;;;;;21.18;78.48;100481.66;7392079;19;20042;-70
2022/07/01 04:10:41;;;;;;;31.33;28.20;;;;;;;21.20;77.87;100482.38;7391485;19;20489;-69
2022/07/01 04:13:10;;;;;;;30.02;26.90;;;;;;;21.23;78.26;100478.63;7395015;19;20010;-70
2022/07/01 04:15:41;;;;;;;29.88;26.55;;;;;;;21.25;78.26;100488.22;7401249;19;20018;-68
2022/07/01 04:18:09;;;;;;;29.00;25.95;;;;;;;21.28;77.97;100484.50;7398835;19;20035;-69
2022/07/01 04:20:38;;;;;;;30.45;27.27;;;;;;;21.31;77.80;100479.78;7401344;19;20513;-69
2022/07/01 04:23:03;;;;;;;31.05;26.65;;;;;;;21.34;78.21;100475.22;7400723;19;20077;-70
2022/07/01 04:25:32;;;;;;;28.52;25.48;;;;;;;21.37;78.17;100480.31;7398387;19;20019;-71
2022/07/01 04:28:02;;;;;;;29.55;25.92;;;;;;;21.40;77.52;100491.63;7397809;19;20018;-70
2022/07/01 04:30:37;;;;;;;29.83;26.83;;;;;;;21.43;77.42;100491.44;7400454;19;20553;-70
2022/07/01 04:33:08;;;;;;;28.67;25.63;;;;;;;21.46;77.38;100491.19;7400633;19;20086;-70
2022/07/01 04:35:38;;;;;;;30.50;27.40;;;;;;;21.48;77.27;100499.09;7397980;19;20031;-69
2022/07/01 04:38:08;;;;;;;28.60;25.23;;;;;;;21.51;77.60;100503.34;7397254;19;20361;-69
2022/07/01 04:40:37;;;;;;;28.55;25.60;;;;;;;21.52;77.58;100510.41;7397711;19;20010;-69
2022/07/01 04:43:03;;;;;;;28.63;25.60;;;;;;;21.54;77.51;100517.31;7400257;19;20082;-70
2022/07/01 04:45:31;;;;;;;29.00;26.00;;;;;;;21.56;77.14;100518.13;7397934;19;20078;-70
2022/07/01 04:48:00;;;;;;;28.83;26.02;;;;;;;21.59;76.86;100515.22;7397443;19;20011;-70
2022/07/01 04:50:32;;;;;;;28.70;25.75;;;;;;;21.63;76.80;100513.19;7397454;19;20081;-70
2022/07/01 04:53:00;;;;;;;27.90;24.92;;;;;;;21.65;76.77;100511.25;7400519;19;20025;-70
2022/07/01 04:55:28;;;;;;;28.30;24.83;;;;;;;21.70;76.56;100522.47;7399625;19;20018;-70
2022/07/01 04:57:57;;;;;;;27.55;24.67;;;;;;;21.75;76.50;100519.44;7397120;19;20018;-70
2022/07/01 05:00:26;;;;;;;27.08;24.23;;;;;;;21.80;76.88;100530.66;7399263;19;20031;-70
2022/07/01 05:02:54;;;;;;;26.75;24.00;;;;;;;21.84;76.66;100536.59;7396949;19;20019;-70
2022/07/01 05:05:23;;;;;;;26.95;23.85;;;;;;;21.89;76.06;100537.16;7396217;19;20070;-70
2022/07/01 05:07:54;;;;;;;27.58;24.67;;;;;;;21.93;76.40;100546.63;7394866;19;20023;-70
2022/07/01 05:10:23;;;;;;;27.00;24.25;;;;;;;21.96;76.21;100557.09;7395969;19;20022;-70
2022/07/01 05:12:52;;;;;;;27.40;24.70;;;;;;;22.00;75.84;100560.38;7399255;19;20026;-70
2022/07/01 05:15:20;;;;;;;26.90;23.90;;;;;;;22.05;75.48;100564.44;7398208;19;20022;-70
2022/07/01 05:23:13;;;;;;;32.28;28.95;;;;;;;22.11;76.30;100577.31;7399320;19;20033;-71
2022/07/01 05:25:42;;;;;;;30.10;26.95;;;;;;;22.03;76.02;100574.38;7395558;19;20018;-70
2022/07/01 05:28:10;;;;;;;31.02;27.90;;;;;;;21.96;75.88;100584.66;7397304;19;20074;-70
2022/07/01 05:30:39;;;;;;;28.75;25.65;;;;;;;21.90;76.39;100585.09;7399044;19;20015;-70
2022/07/01 05:33:07;;;;;;;30.02;26.70;;;;;;;21.86;76.42;100591.59;7396502;19;20035;-70
2022/07/01 05:35:36;;;;;;;30.08;27.08;;;;;;;21.86;76.21;100594.28;7397804;19;20014;-71
2022/07/01 05:38:04;;;;;;;30.70;27.40;;;;;;;21.88;76.05;100597.72;7395305;19;20026;-71
2022/07/01 05:40:35;;;;;;;31.85;28.45;;;;;;;21.91;76.25;100601.97;7397767;19;20493;-71
2022/07/01 05:43:04;;;;;;;33.58;28.17;;;;;;;21.91;75.85;100600.19;7395848;19;20010;-71
2022/07/01 05:45:32;;;;;;;31.83;28.48;;;;;;;21.89;75.94;100598.56;7395854;19;20018;-71
2022/07/01 05:48:01;;;;;;;30.45;27.55;;;;;;;21.84;76.21;100596.22;7395632;19;20018;-72
2022/07/01 05:50:29;;;;;;;30.92;27.75;;;;;;;21.85;76.27;100600.59;7398453;19;20022;-70
2022/07/01 05:52:58;;;;;;;32.65;26.95;;;;;;;21.89;75.66;100599.41;7398635;19;20031;-70
2022/07/01 05:55:26;;;;;;;29.25;26.25;;;;;;;21.96;75.35;100598.03;7398772;19;20019;-69
2022/07/01 05:57:58;;;;;;;30.40;27.20;;;;;;;22.04;75.46;100588.56;7395828;19;20035;-70
2022/07/01 06:00:26;;;;;;;28.63;25.73;;;;;;;22.14;75.07;100589.63;7398185;19;20083;-69
2022/07/01 06:02:55;;;;;;;26.60;23.98;;;;;;;22.20;74.41;100597.19;7395063;19;20457;-71
2022/07/01 06:05:23;;;;;;;25.20;22.60;;;;;;;22.24;73.99;100595.13;7395411;19;20116;-71
2022/07/01 06:07:52;;;;;;;25.95;23.40;;;;;;;22.29;73.93;100604.53;7395408;19;20035;-69
2022/07/01 06:10:21;;;;;;;26.15;23.30;;;;;;;22.36;73.72;100596.91;7397135;19;20027;-70
2022/07/01 06:12:49;;;;;;;26.58;23.85;;;;;;;22.47;73.62;100582.81;7395011;19;20453;-70
2022/07/01 06:15:20;;;;;;;26.95;24.05;;;;;;;22.59;73.01;100587.19;7394572;19;20083;-70
2022/07/01 06:17:49;;;;;;;24.70;22.15;;;;;;;22.74;72.32;100589.72;7395152;19;20249;-70
2022/07/01 06:20:18;;;;;;;24.52;22.13;;;;;;;22.87;72.19;100594.97;7396989;19;20489;-70
2022/07/01 06:22:46;;;;;;;24.52;21.98;;;;;;;23.01;71.48;100599.28;7396766;19;20397;-69
2022/07/01 06:25:21;;;;;;;26.35;23.42;;;;;;;23.12;70.90;100588.59;7394271;19;20548;-69
2022/07/01 06:27:50;;;;;;;24.92;22.13;;;;;;;23.24;70.80;100594.84;7395677;19;20019;-70
2022/07/01 06:30:21;;;;;;;24.60;22.13;;;;;;;23.32;69.90;100597.78;7397796;19;20031;-70
2022/07/01 06:32:49;;;;;;;24.50;21.63;;;;;;;23.35;70.01;100599.38;7395021;19;20026;-71
2022/07/01 06:35:18;;;;;;;25.80;23.02;;;;;;;23.37;69.85;100600.09;7395770;19;20410;-71
2022/07/01 06:37:46;;;;;;;28.63;23.45;;;;;;;23.36;69.54;100615.31;7393166;19;20375;-70
2022/07/01 06:40:15;;;;;;;24.20;21.80;;;;;;;23.34;69.41;100609.22;7395568;19;20510;-71
2022/07/01 06:42:43;;;;;;;25.23;22.67;;;;;;;23.34;69.25;100606.56;7396049;19;20018;-71
2022/07/01 06:45:12;;;;;;;23.55;21.25;;;;;;;23.39;69.03;100595.47;7394313;19;20015;-72
2022/07/01 06:47:44;;;;;;;23.45;20.52;;;;;;;23.42;68.92;100589.88;7395160;19;20014;-70
2022/07/01 06:50:12;;;;;;;20.52;18.48;;;;;;;23.49;68.27;100615.19;7396138;19;20384;-70
2022/07/01 06:52:41;;;;;;;21.95;19.60;;;;;;;23.50;67.66;100603.50;7394715;19;20023;-70
2022/07/01 06:55:10;;;;;;;21.48;19.35;;;;;;;23.50;67.47;100611.53;7396345;19;20030;-70
2022/07/01 06:57:39;;;;;;;20.90;18.83;;;;;;;23.55;67.22;100620.06;7395241;19;20036;-70
2022/07/01 07:00:09;;;;;;;20.05;18.13;;;;;;;23.62;67.00;100628.47;7395616;19;20078;-71
2022/07/01 07:02:39;;;;;;;20.80;18.80;;;;;;;23.67;66.95;100625.44;7394491;19;20011;-70
2022/07/01 07:05:11;;;;;;;23.00;19.67;;;;;;;23.66;65.64;100640.66;7395003;19;20031;-70
2022/07/01 07:07:40;;;;;;;22.20;19.30;;;;;;;23.69;66.15;100618.97;7394521;19;20080;-70
2022/07/01 07:10:09;;;;;;;21.67;18.70;;;;;;;23.73;66.59;100620.44;7394076;19;20493;-69
2022/07/01 07:12:38;;;;;;;19.55;17.48;;;;;;;23.79;66.14;100626.28;7394132;19;20019;-69
2022/07/01 07:15:07;;;;;;;19.45;17.30;;;;;;;23.86;65.49;100630.16;7393741;19;20392;-72
2022/07/01 07:17:36;;;;;;;16.90;15.10;;;;;;;23.89;65.04;100620.06;7393672;19;20035;-67
2022/07/01 07:20:05;;;;;;;17.90;14.07;;;;;;;23.90;64.49;100621.78;7393104;19;20019;-67
2022/07/01 07:22:36;;;;;;;16.38;14.68;;;;;;;23.91;64.06;100622.69;7393399;19;20022;-69
2022/07/01 07:25:05;;;;;;;15.43;13.35;;;;;;;23.98;63.72;100615.81;7393935;19;20074;-68
2022/07/01 07:27:34;;;;;;;14.30;12.80;;;;;;;24.06;62.92;100612.53;7393693;19;20427;-68
2022/07/01 07:30:03;;;;;;;12.15;11.05;;;;;;;24.12;62.68;100613.88;7392738;19;20074;-68
2022/07/01 07:32:31;;;;;;;13.98;11.65;;;;;;;24.13;61.46;100615.56;7394898;19;20102;-67
2022/07/01 07:35:00;;;;;;;10.98;9.35;;;;;;;24.17;61.58;100617.88;7393614;19;20014;-68
2022/07/01 07:37:32;;;;;;;7.88;7.07;;;;;;;24.27;61.14;100630.53;7393834;19;20045;-67
2022/07/01 07:40:03;;;;;;;7.25;6.55;;;;;;;24.34;60.46;100647.81;7396564;19;20025;-68
2022/07/01 07:42:32;;;;;;;8.90;6.32;;;;;;;24.38;60.00;100635.88;7394259;19;20493;-68
2022/07/01 07:45:01;;;;;;;6.55;5.80;;;;;;;24.41;60.39;100638.28;7392240;19;20014;-67
2022/07/01 07:47:29;;;;;;;5.10;4.60;;;;;;;24.44;60.33;100646.09;7390547;19;20027;-68
2022/07/01 07:49:58;;;;;;;4.78;4.10;;;;;;;24.39;60.19;100649.16;7392317;19;20015;-68
2022/07/01 07:52:27;;;;;;;5.78;4.15;;;;;;;24.30;60.07;100638.31;7392170;19;20031;-68
2022/07/01 07:54:55;;;;;;;7.97;4.78;;;;;;;24.26;59.70;100637.72;7394125;19;20014;-68
2022/07/01 07:57:26;;;;;;;6.68;4.68;;;;;;;24.17;60.12;100643.81;7392475;19;20078;-67
2022/07/01 07:59:55;;;;;;;5.28;4.43;;;;;;;24.14;60.94;100634.22;7391760;19;20087;-67
2022/07/01 08:02:24;;;;;;;4.88;4.45;;;;;;;24.14;61.08;100638.69;7393883;19;20015;-67
2022/07/01 08:04:52;;;;;;;6.20;4.63;;;;;;;24.15;60.84;100640.41;7392715;19;20019;-69
2022/07/01 08:07:21;;;;;;;4.63;4.22;;;;;;;24.17;60.61;100641.16;7392719;19;20019;-66
2022/07/01 08:09:50;;;;;;;3.80;3.50;;;;;;;24.11;60.60;100639.78;7393150;19;20376;-66
2022/07/01 08:12:18;;;;;;;4.40;3.30;;;;;;;24.17;60.66;100659.91;7393438;19;20085;-67
2022/07/01 08:14:50;;;;;;;4.03;3.30;;;;;;;24.12;60.63;100676.34;7393744;19;20023;-68
2022/07/01 08:17:18;;;;;;;4.38;3.30;;;;;;;24.06;60.72;100668.78;7392046;19;20485;-67
2022/07/01 08:19:47;;;;;;;3.35;2.97;;;;;;;24.05;61.08;100662.59;7392969;19;20014;-67
2022/07/01 08:22:15;;;;;;;5.10;2.70;;;;;;;24.01;60.74;100687.94;7393002;19;20384;-67
2022/07/01 08:24:43;;;;;;;5.35;3.00;;;;;;;23.96;61.04;100687.47;7391006;19;20027;-66
2022/07/01 08:27:12;;;;;;;3.38;2.08;;;;;;;23.82;61.56;100699.22;7390385;19;20086;-66
2022/07/01 08:29:41;;;;;;;2.70;2.50;;;;;;;23.66;61.92;100690.69;7389989;19;20019;-67
2022/07/01 08:32:12;;;;;;;3.63;2.10;;;;;;;23.45;62.84;100725.34;7392343;19;20453;-67
2022/07/01 08:34:40;;;;;;;3.58;2.30;;;;;;;23.38;63.02;100716.88;7392771;19;20026;-67
2022/07/01 08:37:09;;;;;;;3.17;2.35;;;;;;;23.18;63.38;100716.59;7391809;19;20035;-67
2022/07/01 08:39:37;;;;;;;2.50;2.25;;;;;;;23.10;63.63;100745.72;7389566;19;20509;-67
2022/07/01 08:42:09;;;;;;;3.33;2.50;;;;;;;23.02;63.93;100742.78;7391015;19;20018;-68
2022/07/01 08:44:38;;;;;;;3.20;2.55;;;;;;;22.86;63.91;100757.28;7390878;19;20035;-68
2022/07/01 08:47:07;;;;;;;4.30;2.67;;;;;;;22.66;64.75;100768.56;7389948;19;20022;-67
2022/07/01 08:49:38;;;;;;;3.33;3.03;;;;;;;22.39;65.12;100780.28;7390033;19;20033;-67
2022/07/01 08:52:09;;;;;;;5.05;2.92;;;;;;;22.10;66.19;100776.00;7390249;19;20039;-67
2022/07/01 08:54:38;;;;;;;3.35;3.05;;;;;;;21.82;66.43;100773.53;7392731;19;20493;-67
2022/07/01 08:57:08;;;;;;;3.67;3.38;;;;;;;21.54;67.62;100781.56;7391677;19;20039;-67
2022/07/01 08:59:37;;;;;;;6.30;4.60;;;;;;;21.21;68.77;100792.69;7393418;19;20363;-67
2022/07/01 09:02:07;;;;;;;6.03;5.10;;;;;;;21.04;68.72;100794.66;7399352;19;20501;-66
2022/07/01 09:04:38;;;;;;;4.07;3.67;;;;;;;20.79;69.25;100854.03;7399182;19;20027;-66
2022/07/01 09:07:10;;;;;;;3.83;3.53;;;;;;;20.61;69.70;100818.69;7396467;19;20038;-68
2022/07/01 09:09:42;;;;;;;3.63;3.30;;;;;;;20.45;69.84;100824.13;7399682;19;20025;-68
2022/07/01 09:12:11;;;;;;;3.60;3.30;;;;;;;20.24;70.24;100803.19;7399577;19;20132;-67
2022/07/01 09:14:41;;;;;;;3.13;2.78;;;;;;;20.11;70.58;100836.88;7398847;19;20388;-66
2022/07/01 09:17:09;;;;;;;3.45;2.53;;;;;;;20.03;70.57;100816.03;7396847;19;20485;-66
2022/07/01 09:19:41;;;;;;;3.03;2.80;;;;;;;19.91;71.42;100825.59;7397824;19;20095;-67
2022/07/01 09:22:09;;;;;;;3.20;2.90;;;;;;;19.82;71.14;100848.28;7398268;19;20035;-67
2022/07/01 09:24:41;;;;;;;3.85;2.47;;;;;;;19.66;71.42;100847.44;7397668;19;20473;-67
2022/07/01 09:27:13;;;;;;;2.58;2.38;;;;;;;19.54;71.78;100854.34;7395647;19;20019;-67
2022/07/01 09:29:43;;;;;;;2.58;2.38;;;;;;;19.35;73.02;100863.38;7398178;19;20047;-67
2022/07/01 09:32:13;;;;;;;3.13;2.50;;;;;;;19.27;72.51;100854.97;7395221;19;20453;-67
2022/07/01 09:34:46;;;;;;;3.42;2.50;;;;;;;19.20;73.28;100861.59;7398563;19;20034;-67
2022/07/01 09:37:17;;;;;;;3.40;2.47;;;;;;;19.07;72.63;100855.22;7396351;19;20023;-66
2022/07/01 09:39:47;;;;;;;2.63;2.42;;;;;;;18.98;73.12;100872.53;7396844;19;20482;-67
2022/07/01 09:42:23;;;;;;;4.15;2.55;;;;;;;18.91;74.03;100874.69;7394447;19;20033;-67
2022/07/01 09:44:55;;;;;;;5.75;2.25;;;;;;;18.84;75.01;100878.59;7395583;19;20033;-67
2022/07/01 09:47:25;;;;;;;3.05;2.53;;;;;;;18.78;75.84;100881.56;7394496;19;20019;-67
2022/07/01 09:50:04;;;;;;;4.72;3.20;;;;;;;18.70;77.74;100885.53;7393504;19;20112;-67
2022/07/01 09:52:33;;;;;;;3.35;3.03;;;;;;;18.61;77.79;100906.41;7395658;19;20027;-66
2022/07/01 09:55:01;;;;;;;3.88;3.08;;;;;;;18.44;79.50;100899.31;7397462;19;20019;-66
2022/07/01 09:57:30;;;;;;;5.20;3.97;;;;;;;18.30;80.84;100940.75;7394512;19;20033;-66
2022/07/01 09:59:59;;;;;;;3.55;2.60;;;;;;;18.05;81.65;100906.59;7396667;19;20083;-67
2022/07/01 10:02:30;;;;;;;2.67;2.47;;;;;;;17.92;80.81;100919.59;7395167;19;20031;-67
2022/07/01 10:05:05;;;;;;;2.90;2.70;;;;;;;17.73;82.03;100917.84;7393920;19;20453;-66
2022/07/01 10:07:48;;;;;;;5.05;2.75;;;;;;;17.59;82.03;100925.59;7396360;19;20035;-68
2022/07/01 10:10:32;;;;;;;2.75;2.55;;;;;;;17.49;82.08;100925.22;7396244;19;20365;-68
2022/07/01 10:13:04;;;;;;;2.78;2.58;;;;;;;17.39;82.56;100947.81;7398342;19;20018;-67
2022/07/01 10:15:34;;;;;;;3.85;3.15;;;;;;;17.35;81.63;100952.41;7397104;19;20011;-69
2022/07/01 10:18:02;;;;;;;15.55;5.93;;;;;;;17.31;84.95;100974.66;7395521;19;20091;-68
2022/07/01 10:20:33;;;;;;;9.50;7.40;;;;;;;17.05;89.05;100974.06;7396866;19;20018;-68
2022/07/01 10:23:06;;;;;;;7.93;7.13;;;;;;;16.71;91.68;100977.34;7395303;19;20019;-67
2022/07/01 10:25:41;;;;;;;11.43;9.18;;;;;;;16.43;91.88;100960.00;7395448;19;20520;-68
2022/07/01 10:28:25;;;;;;;9.90;8.90;;;;;;;16.27;93.52;100967.72;7395197;19;20010;-67
2022/07/01 10:31:15;;;;;;;9.80;8.63;;;;;;;16.15;97.24;100962.94;7395252;19;20090;-68
2022/07/01 10:33:49;;;;;;;9.55;8.55;;;;;;;16.06;95.56;100978.28;7396467;19;20468;-68
2022/07/01 10:36:28;;;;;;;9.73;8.73;;;;;;;16.01;96.84;100968.78;7395965;19;20027;-67
2022/07/01 10:39:14;;;;;;;7.85;7.22;;;;;;;15.96;96.90;100964.56;7396613;19;20011;-67
2022/07/01 10:41:44;;;;;;;9.18;8.30;;;;;;;15.93;95.74;100966.47;7395841;19;20018;-67
2022/07/01 10:44:14;;;;;;;8.23;7.53;;;;;;;15.94;95.51;100954.97;7393957;19;20043;-67
2022/07/01 10:46:46;;;;;;;5.78;5.38;;;;;;;15.95;95.39;100954.03;7394465;19;20035;-67
2022/07/01 10:49:15;;;;;;;6.13;5.63;;;;;;;15.92;94.98;100975.31;7395731;19;20357;-67
2022/07/01 10:51:54;;;;;;;5.90;5.40;;;;;;;15.92;94.82;100964.75;7397471;19;20010;-68
2022/07/01 10:54:48;;;;;;;2.70;2.45;;;;;;;15.94;93.63;100968.19;7395032;19;20022;-68
2022/07/01 10:57:25;;;;;;;2.63;2.43;;;;;;;15.88;91.23;100960.50;7393853;19;20379;-71
2022/07/01 10:59:56;;;;;;;1.75;1.65;;;;;;;15.84;90.80;100950.97;7394099;19;20023;-68
2022/07/01 11:02:27;;;;;;;2.17;2.08;;;;;;;15.85;91.90;100965.94;7396053;19;20038;-68
2022/07/01 11:04:59;;;;;;;2.30;2.20;;;;;;;15.91;91.86;100992.13;7395311;19;20074;-68
2022/07/01 11:07:33;;;;;;;3.05;2.30;;;;;;;15.95;91.17;100991.09;7392852;19;20041;-68
2022/07/01 11:10:02;;;;;;;2.40;2.20;;;;;;;16.00;91.00;100990.88;7392956;19;20018;-68
2022/07/01 11:12:31;;;;;;;2.22;2.13;;;;;;;16.03;89.50;100975.75;7393324;19;20014;-68
2022/07/01 11:15:02;;;;;;;3.35;3.05;;;;;;;16.09;89.61;100956.97;7393882;19;20498;-70
2022/07/01 11:17:31;;;;;;;2.53;2.28;;;;;;;16.22;90.42;100961.75;7393610;19;20027;-67
2022/07/01 11:20:02;;;;;;;2.72;2.30;;;;;;;16.35;88.80;100949.75;7394930;19;20015;-67
2022/07/01 11:22:36;;;;;;;2.90;2.40;;;;;;;16.53;87.92;100929.53;7394345;19;20019;-67
2022/07/01 11:25:07;;;;;;;2.17;1.98;;;;;;;16.69;86.36;100942.09;7394469;19;20066;-67
2022/07/01 11:27:36;;;;;;;3.40;2.22;;;;;;;16.90;86.28;100945.59;7392021;19;20410;-67
2022/07/01 11:30:08;;;;;;;2.40;2.20;;;;;;;17.13;85.81;100941.91;7391808;19;20367;-67
2022/07/01 11:32:41;;;;;;;2.20;2.00;;;;;;;17.35;82.86;100932.94;7393258;19;20011;-67
2022/07/01 11:40:52;;;;;;;2.42;2.22;;;;;;;17.82;78.95;100955.47;7392839;19;20010;-68